Terminal Aerodrome Forecast
Issued by NWS

Home | Current Version | Previous Version | Text Only | Print | Product List | Glossary On
Versions: 1 2 3 4 5 6 7 8 9 10 11 12 13 14 15 16 17 18 19 20 21
000
FTUS43 KPAH 210135 AAA
TAFOWB
TAF AMD
KOWB 210135Z 2102/2124 17007KT P6SM BKN040
     FM210700 18006KT P6SM BKN250
     FM211500 19012G18KT P6SM SCT025 BKN250=

USA.gov is the U.S. government's official web portal to all federal, state and local government web resources and services.